createdAt,value
2023-03-12T00:01:28.134Z,96.4
2023-03-12T00:06:28.145Z,96.4
2023-03-12T00:11:28.144Z,96.4
2023-03-12T00:16:28.194Z,96.41
2023-03-12T00:21:28.146Z,96.4
2023-03-12T00:26:28.135Z,96.4
2023-03-12T00:31:28.145Z,96.39
2023-03-12T00:36:28.135Z,96.4
2023-03-12T00:41:28.145Z,96.39
2023-03-12T00:46:28.145Z,96.4
2023-03-12T00:51:28.136Z,96.4
2023-03-12T00:56:28.146Z,96.41
2023-03-12T01:01:28.136Z,96.41
2023-03-12T01:06:28.147Z,96.41
2023-03-12T01:11:28.146Z,96.39
2023-03-12T01:16:28.147Z,96.39
2023-03-12T01:21:28.147Z,96.38
2023-03-12T01:26:28.136Z,96.38
2023-03-12T01:31:28.147Z,96.39
2023-03-12T01:36:28.136Z,96.39
2023-03-12T01:41:28.148Z,96.39
2023-03-12T01:46:28.147Z,96.4
2023-03-12T01:51:37.396Z,96.4
2023-03-12T01:56:28.147Z,96.39
2023-03-12T02:01:28.137Z,96.41
2023-03-12T02:06:28.147Z,96.4
2023-03-12T02:11:28.147Z,96.41
2023-03-12T02:16:28.148Z,96.4
2023-03-12T02:21:28.147Z,96.41
2023-03-12T02:26:28.137Z,96.4
2023-03-12T02:31:28.212Z,96.4
2023-03-12T02:36:28.138Z,96.4
2023-03-12T02:41:28.156Z,96.39
2023-03-12T02:46:28.149Z,96.39
2023-03-12T02:51:28.149Z,96.39
2023-03-12T02:56:28.149Z,96.39
2023-03-12T03:01:28.138Z,96.4
2023-03-12T03:06:28.149Z,96.41
2023-03-12T03:11:28.138Z,96.41
2023-03-12T03:16:28.149Z,96.41
2023-03-12T03:21:28.149Z,96.41
2023-03-12T03:26:28.139Z,96.4
2023-03-12T03:31:28.150Z,96.4
2023-03-12T03:36:28.139Z,96.39
2023-03-12T03:41:28.150Z,96.39
2023-03-12T03:46:28.149Z,96.39
2023-03-12T03:51:28.151Z,96.39
2023-03-12T03:56:28.150Z,96.39
2023-03-12T04:01:28.140Z,96.39
2023-03-12T04:06:28.150Z,96.39
2023-03-12T04:11:28.140Z,96.39
2023-03-12T04:16:28.150Z,96.38
2023-03-12T04:21:28.150Z,96.39
2023-03-12T04:26:28.140Z,96.39
2023-03-12T04:31:28.150Z,96.4
2023-03-12T04:36:28.140Z,96.39
2023-03-12T04:41:28.151Z,96.39
2023-03-12T04:46:28.141Z,96.39
2023-03-12T04:51:28.152Z,96.38
2023-03-12T04:56:28.152Z,96.37
2023-03-12T05:01:28.141Z,96.37
2023-03-12T05:06:28.218Z,96.37
2023-03-12T05:11:28.141Z,96.37
2023-03-12T05:16:28.160Z,96.38
2023-03-12T05:21:28.153Z,96.38
2023-03-12T05:26:28.153Z,96.38
2023-03-12T05:31:28.153Z,96.38
2023-03-12T05:36:28.142Z,96.39
2023-03-12T05:41:28.153Z,96.38
2023-03-12T05:46:28.143Z,96.37
2023-03-12T05:51:28.153Z,96.37
2023-03-12T06:01:28.143Z,96.37
2023-03-12T06:06:28.154Z,96.37
2023-03-12T06:11:28.144Z,96.37
2023-03-12T06:16:28.154Z,96.37
2023-03-12T06:21:28.155Z,96.37
2023-03-12T06:26:28.156Z,96.37
2023-03-12T06:31:28.156Z,96.37
2023-03-12T06:36:28.145Z,96.38
2023-03-12T06:41:28.156Z,96.37
2023-03-12T06:46:28.146Z,96.37
2023-03-12T06:51:28.156Z,96.37
2023-03-12T06:56:28.157Z,96.36
2023-03-12T07:01:28.147Z,96.36
2023-03-12T07:06:28.158Z,96.36
2023-03-12T07:11:28.157Z,96.36
2023-03-12T07:16:28.158Z,96.36
2023-03-12T07:21:28.148Z,96.35
2023-03-12T07:26:28.160Z,96.35
2023-03-12T07:31:28.159Z,96.36
2023-03-12T07:36:28.150Z,96.37
2023-03-12T07:41:28.160Z,96.36
2023-03-12T07:46:28.150Z,96.35
2023-03-12T07:51:28.161Z,96.35
2023-03-12T07:56:28.162Z,96.34
2023-03-12T08:01:28.163Z,96.34
2023-03-12T08:06:28.162Z,96.35
2023-03-12T08:11:28.153Z,96.35
2023-03-12T08:16:28.164Z,96.36
2023-03-12T08:21:28.154Z,96.35
2023-03-12T08:26:28.166Z,96.35
2023-03-12T08:31:28.165Z,96.33
2023-03-12T08:36:28.156Z,96.32
2023-03-12T08:41:28.168Z,96.31
2023-03-12T08:46:28.158Z,96.29
2023-03-12T08:51:28.169Z,96.28
2023-03-12T08:56:28.170Z,96.3
2023-03-12T09:01:28.172Z,96.31
2023-03-12T09:06:28.172Z,96.32
2023-03-12T09:11:28.162Z,96.32
2023-03-12T09:16:28.174Z,96.32
2023-03-12T09:21:28.164Z,96.32
2023-03-12T09:26:28.182Z,96.32
2023-03-12T09:31:37.437Z,96.33
2023-03-12T09:36:28.166Z,96.32
2023-03-12T09:41:28.178Z,96.33
2023-03-12T09:46:28.168Z,96.32
2023-03-12T09:51:28.180Z,96.31
2023-03-12T09:56:28.181Z,96.32
2023-03-12T10:01:28.183Z,96.31
2023-03-12T10:06:28.184Z,96.31
2023-03-12T10:11:28.173Z,96.31
2023-03-12T10:16:28.186Z,96.3
2023-03-12T10:21:28.176Z,96.31
2023-03-12T10:26:28.187Z,96.31
2023-03-12T10:31:28.188Z,96.32
2023-03-12T10:36:28.189Z,96.31
2023-03-12T10:41:28.191Z,96.33
2023-03-12T10:46:28.181Z,96.33
2023-03-12T10:51:28.192Z,96.34
2023-03-12T10:56:28.182Z,96.33
2023-03-12T11:01:28.195Z,96.33
2023-03-12T11:06:28.194Z,96.32
2023-03-12T11:11:28.185Z,96.33
2023-03-12T11:16:28.197Z,96.34
2023-03-12T11:21:28.187Z,96.33
2023-03-12T11:26:28.198Z,96.34
2023-03-12T11:31:28.200Z,96.34
2023-03-12T11:36:28.201Z,96.34
2023-03-12T11:41:28.265Z,96.33
2023-03-12T11:46:28.192Z,96.33
2023-03-12T11:51:28.246Z,96.33
2023-03-12T11:56:28.194Z,96.33
2023-03-12T12:01:28.206Z,96.33
2023-03-12T12:06:28.206Z,96.33
2023-03-12T12:11:28.209Z,96.33
2023-03-12T12:16:28.209Z,96.33
2023-03-12T12:21:28.200Z,96.33
2023-03-12T12:26:28.212Z,96.32
2023-03-12T12:31:28.201Z,96.31
2023-03-12T12:36:28.213Z,96.31
2023-03-12T12:41:28.214Z,96.3
2023-03-12T12:46:28.205Z,96.3
2023-03-12T12:51:28.216Z,96.29
2023-03-12T12:56:28.207Z,96.28
2023-03-12T13:01:28.219Z,96.28
2023-03-12T13:06:28.219Z,96.28
2023-03-12T13:11:28.222Z,96.29
2023-03-12T13:16:28.222Z,96.28
2023-03-12T13:21:28.213Z,96.28
2023-03-12T13:26:28.224Z,96.29
2023-03-12T13:31:28.215Z,96.28
2023-03-12T13:36:28.228Z,96.28
2023-03-12T13:41:28.228Z,96.27
2023-03-12T13:46:28.218Z,96.25
2023-03-12T13:51:28.232Z,96.24
2023-03-12T13:56:28.222Z,96.24
2023-03-12T14:01:28.234Z,96.24
2023-03-12T14:06:28.235Z,96.23
2023-03-12T14:11:28.238Z,96.25
2023-03-12T14:16:28.238Z,96.25
2023-03-12T14:21:28.230Z,96.24
2023-03-12T14:26:28.293Z,96.25
2023-03-12T14:31:28.233Z,96.26
2023-03-12T14:36:28.244Z,96.25
2023-03-12T14:41:28.246Z,96.25
2023-03-12T14:46:28.248Z,96.25
2023-03-12T14:51:28.249Z,96.27
2023-03-12T14:56:28.241Z,96.27
2023-03-12T15:01:28.253Z,96.27
2023-03-12T15:06:28.242Z,96.28
2023-03-12T15:11:28.256Z,96.28
2023-03-12T15:16:28.257Z,96.28
2023-03-12T15:21:28.248Z,96.28
2023-03-12T15:26:28.259Z,96.28
2023-03-12T15:31:28.251Z,96.28
2023-03-12T15:36:28.263Z,96.28
2023-03-12T15:41:28.263Z,96.27
2023-03-12T15:46:28.265Z,96.28
2023-03-12T15:51:28.266Z,96.28
2023-03-12T15:56:28.257Z,96.28
2023-03-12T16:01:28.269Z,96.28
2023-03-12T16:06:28.260Z,96.3
2023-03-12T16:11:28.272Z,96.3
2023-03-12T16:16:28.274Z,96.31
2023-03-12T16:21:28.264Z,96.32
2023-03-12T16:26:28.275Z,96.31
2023-03-12T16:31:28.266Z,96.31
2023-03-12T16:36:28.278Z,96.3
2023-03-12T16:41:28.269Z,96.3
2023-03-12T16:46:28.281Z,96.3
2023-03-12T16:51:28.282Z,96.29
2023-03-12T16:56:28.272Z,96.3
2023-03-12T17:06:28.275Z,96.32
2023-03-12T17:11:37.547Z,96.31
2023-03-12T17:16:28.288Z,96.3
2023-03-12T17:21:28.337Z,96.3
2023-03-12T17:26:28.291Z,96.3
2023-03-12T17:31:28.281Z,96.3
2023-03-12T17:36:28.293Z,96.29
2023-03-12T17:41:28.284Z,96.3
2023-03-12T17:46:28.295Z,96.3
2023-03-12T17:51:28.297Z,96.31
2023-03-12T17:56:28.287Z,96.3
2023-03-12T18:01:28.299Z,96.3
2023-03-12T18:06:28.290Z,96.31
2023-03-12T18:11:28.302Z,96.33
2023-03-12T18:16:28.303Z,96.34
2023-03-12T18:21:28.305Z,96.34
2023-03-12T18:26:28.306Z,96.34
2023-03-12T18:31:28.296Z,96.35
2023-03-12T18:36:28.307Z,96.35
2023-03-12T18:41:28.299Z,96.35
2023-03-12T18:46:28.310Z,96.34
2023-03-12T18:51:28.311Z,96.35
2023-03-12T18:56:28.302Z,96.36
2023-03-12T19:01:28.314Z,96.36
2023-03-12T19:06:28.304Z,96.36
2023-03-12T19:11:28.315Z,96.37
2023-03-12T19:16:28.318Z,96.37
2023-03-12T19:21:28.319Z,96.37
2023-03-12T19:26:28.320Z,96.38
2023-03-12T19:31:28.310Z,96.37
2023-03-12T19:36:28.371Z,96.36
2023-03-12T19:41:28.312Z,96.36
2023-03-12T19:46:28.323Z,96.36
2023-03-12T19:51:28.325Z,96.36
2023-03-12T19:56:28.374Z,96.37
2023-03-12T20:01:28.328Z,96.37
2023-03-12T20:06:28.318Z,96.37
2023-03-12T20:11:28.329Z,96.37
2023-03-12T20:16:28.320Z,96.37
2023-03-12T20:21:28.333Z,96.36
2023-03-12T20:26:28.334Z,96.37
2023-03-12T20:31:28.324Z,96.37
2023-03-12T20:36:28.336Z,96.37
2023-03-12T20:41:28.326Z,96.37
2023-03-12T20:46:28.338Z,96.37
2023-03-12T20:51:28.339Z,96.37
2023-03-12T20:56:28.341Z,96.37
2023-03-12T21:01:28.342Z,96.37
2023-03-12T21:06:28.332Z,96.37
2023-03-12T21:11:28.344Z,96.37
2023-03-12T21:16:28.335Z,96.37
2023-03-12T21:21:28.347Z,96.37
2023-03-12T21:26:28.347Z,96.38
2023-03-12T21:31:28.338Z,96.38
2023-03-12T21:36:28.349Z,96.38
2023-03-12T21:41:28.341Z,96.37
2023-03-12T21:46:28.352Z,96.37
2023-03-12T21:51:28.342Z,96.36
2023-03-12T21:56:28.354Z,96.36
2023-03-12T22:01:28.356Z,96.35
2023-03-12T22:06:28.347Z,96.36
2023-03-12T22:11:28.384Z,96.35
2023-03-12T22:16:28.349Z,96.34
2023-03-12T22:21:28.361Z,96.34
2023-03-12T22:26:28.361Z,96.34
2023-03-12T22:31:28.364Z,96.33
2023-03-12T22:36:28.364Z,96.32
2023-03-12T22:41:28.355Z,96.32
2023-03-12T22:46:28.366Z,96.32
2023-03-12T22:51:28.356Z,96.32
2023-03-12T22:56:28.370Z,96.31
2023-03-12T23:01:28.370Z,96.3
2023-03-12T23:06:28.361Z,96.3
2023-03-12T23:11:28.372Z,96.3
2023-03-12T23:16:28.363Z,96.29
2023-03-12T23:21:28.374Z,96.29
2023-03-12T23:26:28.375Z,96.28
2023-03-12T23:31:28.378Z,96.27
2023-03-12T23:36:28.379Z,96.26
2023-03-12T23:41:28.368Z,96.26
2023-03-12T23:46:28.381Z,96.25
2023-03-12T23:51:28.371Z,96.25
2023-03-12T23:56:28.383Z,96.25
